createdAt,value
2019-04-11T00:01:08.239Z,96.70
2019-04-11T00:03:37.619Z,96.80
2019-04-11T00:06:07.428Z,96.90
2019-04-11T00:08:37.137Z,96.80
2019-04-11T00:11:06.042Z,96.70
2019-04-11T00:13:36.323Z,96.60
2019-04-11T00:16:04.810Z,96.90
2019-04-11T00:18:34.511Z,97.10
2019-04-11T00:21:02.973Z,97.30
2019-04-11T00:23:32.373Z,97.70
2019-04-11T00:26:02.063Z,98.20
2019-04-11T00:28:30.599Z,98.30
2019-04-11T00:30:59.002Z,98.30
2019-04-11T00:33:27.414Z,98.60
2019-04-11T00:35:55.819Z,98.90
2019-04-11T00:38:24.215Z,99.50
2019-04-11T00:40:53.306Z,99.80
2019-04-11T00:43:30.855Z,99.90
2019-04-11T00:45:51.947Z,99.90
2019-04-11T00:48:20.382Z,99.90
2019-04-11T00:50:49.623Z,99.90
2019-04-11T00:53:18.988Z,99.90
2019-04-11T00:55:48.150Z,99.90
2019-04-11T00:58:17.163Z,99.90
2019-04-11T01:00:45.626Z,99.90
2019-04-11T01:03:14.096Z,99.90
2019-04-11T01:05:42.603Z,99.90
2019-04-11T01:08:11.462Z,99.90
2019-04-11T01:10:40.018Z,99.90
2019-04-11T01:13:09.220Z,99.90
2019-04-11T01:15:40.687Z,99.90
2019-04-11T01:18:09.753Z,99.90
2019-04-11T01:20:38.227Z,99.90
2019-04-11T01:23:06.860Z,99.90
2019-04-11T01:25:35.346Z,99.90
2019-04-11T01:28:04.649Z,99.90
2019-04-11T01:30:38.790Z,99.90
2019-04-11T01:33:07.302Z,99.90
2019-04-11T01:35:35.712Z,99.90
2019-04-11T01:38:04.123Z,99.90
2019-04-11T01:40:32.516Z,99.90
2019-04-11T01:43:01.890Z,99.90
2019-04-11T01:45:31.579Z,99.90
2019-04-11T01:48:01.718Z,99.90
2019-04-11T01:50:30.992Z,99.90
2019-04-11T01:53:00.471Z,99.90
2019-04-11T01:55:29.014Z,99.90
2019-04-11T01:57:58.257Z,99.90
2019-04-11T02:00:44.830Z,99.90
2019-04-11T02:03:15.012Z,99.90
2019-04-11T02:05:43.622Z,99.90
2019-04-11T02:08:13.223Z,99.90
2019-04-11T02:10:41.790Z,99.90
2019-04-11T02:13:10.196Z,99.90
2019-04-11T02:15:38.726Z,99.90
2019-04-11T02:18:07.594Z,99.90
2019-04-11T02:20:36.900Z,99.90
2019-04-11T02:23:10.884Z,99.90
2019-04-11T02:25:47.053Z,99.90
2019-04-11T02:28:17.038Z,99.90
2019-04-11T02:30:48.457Z,99.90
2019-04-11T02:33:18.410Z,99.90
2019-04-11T02:35:49.345Z,99.90
2019-04-11T02:38:18.955Z,99.90
2019-04-11T02:40:49.797Z,99.90
2019-04-11T02:43:18.056Z,99.90
2019-04-11T02:46:01.745Z,99.90
2019-04-11T02:48:18.273Z,99.90
2019-04-11T02:50:47.821Z,99.90
2019-04-11T02:53:16.970Z,99.90
2019-04-11T02:55:46.787Z,99.90
2019-04-11T02:58:15.527Z,99.90
2019-04-11T03:00:44.884Z,99.90
2019-04-11T03:03:15.092Z,99.90
2019-04-11T03:05:44.566Z,99.90
2019-04-11T03:08:18.425Z,99.90
2019-04-11T03:10:45.528Z,99.90
2019-04-11T03:13:16.593Z,99.90
2019-04-11T03:16:02.185Z,99.90
2019-04-11T03:18:39.073Z,99.90
2019-04-11T03:20:53.180Z,99.90
2019-04-11T03:23:20.601Z,99.90
2019-04-11T03:25:48.930Z,99.90
2019-04-11T03:28:22.636Z,99.90
2019-04-11T03:31:24.472Z,99.90
2019-04-11T03:34:12.735Z,99.90
2019-04-11T03:36:41.744Z,99.90
2019-04-11T03:38:42.700Z,99.90
2019-04-11T03:41:04.346Z,99.90
2019-04-11T03:43:32.999Z,99.90
2019-04-11T03:46:11.755Z,99.90
2019-04-11T03:48:33.388Z,99.90
2019-04-11T03:50:54.231Z,99.90
2019-04-11T03:53:23.521Z,99.90
2019-04-11T03:55:53.490Z,99.90
2019-04-11T03:58:23.825Z,99.90
2019-04-11T04:00:56.781Z,99.90
2019-04-11T04:03:24.596Z,99.90
2019-04-11T04:05:55.282Z,99.90
2019-04-11T04:08:25.156Z,99.90
2019-04-11T04:11:14.698Z,99.90
2019-04-11T04:13:45.610Z,99.90
2019-04-11T04:16:40.389Z,99.90
2019-04-11T04:19:13.019Z,99.90
2019-04-11T04:21:44.318Z,99.90
2019-04-11T04:24:29.981Z,99.90
2019-04-11T04:27:00.951Z,99.90
2019-04-11T04:29:29.324Z,99.90
2019-04-11T04:31:59.527Z,99.90
2019-04-11T04:34:28.473Z,99.90
2019-04-11T04:36:57.887Z,99.90
2019-04-11T04:39:27.289Z,99.90
2019-04-11T04:42:05.827Z,99.90
2019-04-11T04:44:27.276Z,99.90
2019-04-11T04:47:10.213Z,99.90
2019-04-11T04:49:25.838Z,99.90
2019-04-11T04:51:55.727Z,99.90
2019-04-11T04:54:24.583Z,99.90
2019-04-11T04:56:54.471Z,99.90
2019-04-11T04:59:23.645Z,99.90
2019-04-11T05:01:53.370Z,99.90
2019-04-11T05:04:23.469Z,99.90
2019-04-11T05:06:53.052Z,99.90
2019-04-11T05:09:23.515Z,99.90
2019-04-11T05:11:53.076Z,99.90
2019-04-11T05:14:23.192Z,99.90
2019-04-11T05:16:52.581Z,99.90
2019-04-11T05:19:22.195Z,99.90
2019-04-11T05:21:52.007Z,99.90
2019-04-11T05:24:20.858Z,99.90
2019-04-11T05:26:50.340Z,99.90
2019-04-11T05:29:19.590Z,99.90
2019-04-11T05:31:49.111Z,99.90
2019-04-11T05:34:18.302Z,99.90
2019-04-11T05:36:47.182Z,99.90
2019-04-11T05:39:17.407Z,99.90
2019-04-11T05:41:47.127Z,99.90
2019-04-11T05:44:16.741Z,99.90
2019-04-11T05:46:53.248Z,99.90
2019-04-11T05:49:17.405Z,99.90
2019-04-11T05:51:47.705Z,99.90
2019-04-11T05:54:16.560Z,99.90
2019-04-11T05:56:46.535Z,99.90
2019-04-11T05:59:17.224Z,99.90
2019-04-11T06:01:48.872Z,99.90
2019-04-11T06:04:28.220Z,99.90
2019-04-11T06:06:58.426Z,99.90
2019-04-11T06:09:32.973Z,99.90
2019-04-11T06:12:06.042Z,99.90
2019-04-11T06:14:41.983Z,99.90
2019-04-11T06:17:12.048Z,99.90
2019-04-11T06:19:42.115Z,99.90
2019-04-11T06:22:10.860Z,99.90
2019-04-11T06:24:44.448Z,99.90
2019-04-11T06:27:22.069Z,99.90
2019-04-11T06:30:03.904Z,99.90
2019-04-11T06:32:50.513Z,99.90
2019-04-11T06:35:20.582Z,99.90
2019-04-11T06:37:50.627Z,99.90
2019-04-11T06:40:23.365Z,99.90
2019-04-11T06:42:56.231Z,99.90
2019-04-11T06:45:38.067Z,99.90
2019-04-11T06:48:22.262Z,99.90
2019-04-11T06:50:51.690Z,99.90
2019-04-11T06:53:21.163Z,99.90
2019-04-11T06:55:51.223Z,99.90
2019-04-11T06:58:21.514Z,99.90
2019-04-11T07:00:51.784Z,99.90
2019-04-11T07:03:30.203Z,99.90
2019-04-11T07:05:59.418Z,99.90
2019-04-11T07:08:30.041Z,99.90
2019-04-11T07:11:02.966Z,99.90
2019-04-11T07:13:37.070Z,99.90
2019-04-11T07:16:05.684Z,99.90
2019-04-11T07:18:42.059Z,99.90
2019-04-11T07:21:11.556Z,99.90
2019-04-11T07:23:57.903Z,99.90
2019-04-11T07:26:33.705Z,99.90
2019-04-11T07:29:13.017Z,99.90
2019-04-11T07:32:01.119Z,99.90
2019-04-11T07:34:47.729Z,99.90
2019-04-11T07:37:34.528Z,99.90
2019-04-11T07:40:15.301Z,98.80
2019-04-11T07:43:05.838Z,97.80
2019-04-11T07:45:49.051Z,98.20
2019-04-11T07:48:19.381Z,96.00
2019-04-11T07:50:48.789Z,96.00
2019-04-11T07:53:19.736Z,96.70
2019-04-11T07:55:48.202Z,96.00
2019-04-11T07:58:19.778Z,95.10
2019-04-11T08:00:54.300Z,94.20
2019-04-11T08:03:30.396Z,94.80
2019-04-11T08:06:05.912Z,93.90
2019-04-11T08:08:47.899Z,94.40
2019-04-11T08:11:18.026Z,93.50
2019-04-11T08:14:04.295Z,93.50
2019-04-11T08:16:35.055Z,93.10
2019-04-11T08:19:07.967Z,91.40
2019-04-11T08:21:54.602Z,91.80
2019-04-11T08:24:41.081Z,91.50
2019-04-11T08:27:27.548Z,87.00
2019-04-11T08:30:00.540Z,90.40
2019-04-11T08:32:46.438Z,91.30
2019-04-11T08:35:34.593Z,91.10
2019-04-11T08:38:10.145Z,90.90
2019-04-11T08:40:53.361Z,90.30
2019-04-11T08:43:32.730Z,88.20
2019-04-11T08:46:06.707Z,86.00
2019-04-11T08:48:53.058Z,84.50
2019-04-11T08:51:25.638Z,83.20
2019-04-11T08:54:07.394Z,86.40
2019-04-11T08:56:37.456Z,81.50
2019-04-11T08:59:29.341Z,78.20
2019-04-11T09:01:57.866Z,79.80
2019-04-11T09:04:46.508Z,78.60
2019-04-11T09:07:17.061Z,77.90
2019-04-11T09:10:04.082Z,74.00
2019-04-11T09:12:32.599Z,74.80
2019-04-11T09:15:12.704Z,74.20
2019-04-11T09:17:55.185Z,74.80
2019-04-11T09:20:21.396Z,73.50
2019-04-11T09:22:51.679Z,71.20
2019-04-11T09:25:39.046Z,72.40
2019-04-11T09:28:19.550Z,71.00
2019-04-11T09:30:52.837Z,71.90
2019-04-11T09:33:41.446Z,67.30
2019-04-11T09:36:15.522Z,67.00
2019-04-11T09:38:52.762Z,63.70
2019-04-11T09:41:38.690Z,65.80
2019-04-11T09:44:08.907Z,64.80
2019-04-11T09:46:54.969Z,62.70
2019-04-11T09:49:31.087Z,60.90
2019-04-11T09:52:07.285Z,57.80
2019-04-11T09:54:37.692Z,56.90
2019-04-11T09:57:07.896Z,56.00
2019-04-11T09:59:47.645Z,52.50
2019-04-11T10:02:35.305Z,47.90
2019-04-11T10:05:07.387Z,44.40
2019-04-11T10:07:54.513Z,42.10
2019-04-11T10:10:30.885Z,38.80
2019-04-11T10:13:18.607Z,38.30
2019-04-11T10:16:05.352Z,38.60
2019-04-11T10:18:44.395Z,42.00
2019-04-11T10:21:15.247Z,41.30
2019-04-11T10:23:45.356Z,41.50
2019-04-11T10:26:14.055Z,40.10
2019-04-11T10:28:49.708Z,40.80
2019-04-11T10:31:18.227Z,42.10
2019-04-11T10:34:06.481Z,42.80
2019-04-11T10:36:36.970Z,44.00
2019-04-11T10:39:15.288Z,43.00
2019-04-11T10:41:46.302Z,43.40
2019-04-11T10:44:17.997Z,44.00
2019-04-11T10:46:51.513Z,44.20
2019-04-11T10:54:49.170Z,46.50
2019-04-11T10:57:27.841Z,47.80
2019-04-11T11:02:41.856Z,50.60
2019-04-11T11:05:12.785Z,49.00
2019-04-11T11:07:42.921Z,50.00
2019-04-11T11:10:19.569Z,50.50
2019-04-11T11:13:01.485Z,50.50
2019-04-11T11:15:31.706Z,51.50
2019-04-11T11:18:39.812Z,54.00
2019-04-11T11:20:55.116Z,55.00
2019-04-11T11:23:39.162Z,55.50
2019-04-11T11:26:09.376Z,57.50
2019-04-11T11:28:46.620Z,57.20
2019-04-11T11:31:20.306Z,55.80
2019-04-11T11:33:50.981Z,54.90
2019-04-11T11:36:21.416Z,54.80
2019-04-11T11:39:08.808Z,55.00
2019-04-11T11:41:55.201Z,56.30
2019-04-11T11:44:25.244Z,56.60
2019-04-11T11:49:46.771Z,55.80
2019-04-11T11:52:06.733Z,56.90
2019-04-11T11:54:37.787Z,57.80
2019-04-11T11:57:08.689Z,57.50
2019-04-11T11:59:42.821Z,57.80
2019-04-11T12:02:18.282Z,57.50
2019-04-11T12:04:48.548Z,57.30
2019-04-11T12:07:19.018Z,57.60
2019-04-11T12:10:05.238Z,59.00
2019-04-11T12:15:32.974Z,56.80
2019-04-11T12:18:20.369Z,58.60
2019-04-11T12:20:54.214Z,58.00
2019-04-11T12:23:26.270Z,57.90
2019-04-11T12:25:55.718Z,59.60
2019-04-11T12:28:25.926Z,57.30
2019-04-11T12:31:00.563Z,56.60
2019-04-11T12:33:30.682Z,56.60
2019-04-11T12:36:06.706Z,57.70
2019-04-11T12:38:36.751Z,57.30
2019-04-11T12:41:06.800Z,57.70
2019-04-11T12:43:39.302Z,57.60
2019-04-11T12:46:30.062Z,57.60
2019-04-11T12:48:57.478Z,57.50
2019-04-11T12:51:43.933Z,58.10
2019-04-11T12:54:13.103Z,58.90
2019-04-11T12:56:52.131Z,57.40
2019-04-11T12:59:20.534Z,57.90
2019-04-11T13:02:06.771Z,58.50
2019-04-11T13:04:35.240Z,71.20
2019-04-11T13:07:17.576Z,61.30
2019-04-11T13:09:53.564Z,58.40
2019-04-11T13:12:29.604Z,57.90
2019-04-11T13:15:05.331Z,63.80
2019-04-11T13:17:35.387Z,81.70
2019-04-11T13:20:23.788Z,57.20
2019-04-11T13:22:53.832Z,57.40
2019-04-11T13:25:40.076Z,58.50
2019-04-11T13:28:09.030Z,57.60
2019-04-11T13:30:41.847Z,72.70
2019-04-11T13:33:12.065Z,73.30
2019-04-11T13:35:58.634Z,65.10
2019-04-11T13:38:31.209Z,58.40
2019-04-11T13:41:20.096Z,58.60
2019-04-11T13:43:49.396Z,58.60
2019-04-11T13:46:19.522Z,59.50
2019-04-11T13:49:01.894Z,59.70
2019-04-11T13:51:31.943Z,58.40
2019-04-11T13:54:19.107Z,58.10
2019-04-11T13:57:05.296Z,58.80
2019-04-11T13:59:35.687Z,59.60
2019-04-11T14:02:14.982Z,60.70
2019-04-11T14:04:45.575Z,59.40
2019-04-11T14:07:21.264Z,59.10
2019-04-11T14:09:52.675Z,59.30
2019-04-11T14:12:22.419Z,59.50
2019-04-11T14:14:52.052Z,58.80
2019-04-11T14:17:22.222Z,59.00
2019-04-11T14:19:55.214Z,58.30
2019-04-11T14:22:28.984Z,58.70
2019-04-11T14:24:57.019Z,58.50
2019-04-11T14:27:27.103Z,59.60
2019-04-11T14:30:00.326Z,59.10
2019-04-11T14:32:30.439Z,58.70
2019-04-11T14:35:15.819Z,59.60
2019-04-11T14:37:48.574Z,59.20
2019-04-11T14:40:30.566Z,59.10
2019-04-11T14:43:16.952Z,59.20
2019-04-11T14:45:49.683Z,58.50
2019-04-11T14:48:19.715Z,58.80
2019-04-11T14:50:59.047Z,60.10
2019-04-11T14:53:46.625Z,60.50
2019-04-11T14:56:17.295Z,58.80
2019-04-11T14:59:03.610Z,59.90
2019-04-11T15:01:32.202Z,59.90
2019-04-11T15:04:05.218Z,58.20
2019-04-11T15:06:44.549Z,58.10
2019-04-11T15:09:16.892Z,57.40
2019-04-11T15:11:50.192Z,58.20
2019-04-11T15:14:32.141Z,58.90
2019-04-11T15:17:11.147Z,58.20
2019-04-11T15:19:41.186Z,60.30
2019-04-11T15:22:20.295Z,58.00
2019-04-11T15:24:50.334Z,57.50
2019-04-11T15:27:38.544Z,57.70
2019-04-11T15:30:16.677Z,58.10
2019-04-11T15:33:02.625Z,58.20
2019-04-11T15:35:31.023Z,59.20
2019-04-11T15:38:17.326Z,60.20
2019-04-11T15:40:46.701Z,59.90
2019-04-11T15:43:22.263Z,60.10
2019-04-11T15:45:52.302Z,60.10
2019-04-11T15:48:28.190Z,60.30
2019-04-11T15:51:15.250Z,60.10
2019-04-11T15:53:47.942Z,59.10
2019-04-11T15:56:37.853Z,59.60
2019-04-11T15:59:08.633Z,60.20
2019-04-11T16:01:45.020Z,60.70
2019-04-11T16:04:30.045Z,60.40
2019-04-11T16:07:13.005Z,61.50
2019-04-11T16:09:46.314Z,61.60
2019-04-11T16:12:19.042Z,61.80
2019-04-11T16:15:05.431Z,62.70
2019-04-11T16:17:51.857Z,62.90
2019-04-11T16:20:20.531Z,62.10
2019-04-11T16:22:55.356Z,62.90
2019-04-11T16:25:23.743Z,62.10
2019-04-11T16:27:53.814Z,62.80
2019-04-11T16:30:23.526Z,63.00
2019-04-11T16:32:56.601Z,64.30
2019-04-11T16:35:42.875Z,64.40
2019-04-11T16:38:31.258Z,64.60
2019-04-11T16:41:17.638Z,64.60
2019-04-11T16:43:47.678Z,65.00
2019-04-11T16:46:34.302Z,65.00
2019-04-11T16:49:02.704Z,64.00
2019-04-11T16:51:31.449Z,64.70
2019-04-11T16:54:00.052Z,63.90
2019-04-11T16:56:28.526Z,65.40
2019-04-11T16:58:56.945Z,65.10
2019-04-11T17:01:25.338Z,64.60
2019-04-11T17:03:55.072Z,65.20
2019-04-11T17:06:34.487Z,65.50
2019-04-11T17:09:07.352Z,65.60
2019-04-11T17:11:35.760Z,65.30
2019-04-11T17:14:04.404Z,66.40
2019-04-11T17:16:32.873Z,68.10
2019-04-11T17:19:05.185Z,68.30
2019-04-11T17:21:42.478Z,68.30
2019-04-11T17:24:01.599Z,69.40
2019-04-11T17:26:30.016Z,68.90
2019-04-11T17:28:58.417Z,69.50
2019-04-11T17:31:26.808Z,68.40
2019-04-11T17:33:56.614Z,68.30
2019-04-11T17:36:25.231Z,68.10
2019-04-11T17:38:53.630Z,68.50
2019-04-11T17:41:22.063Z,69.10
2019-04-11T17:43:51.773Z,69.50
2019-04-11T17:46:20.523Z,69.50
2019-04-11T17:48:50.425Z,69.90
2019-04-11T17:51:19.049Z,70.00
2019-04-11T17:53:47.675Z,69.60
2019-04-11T17:56:16.098Z,70.40
2019-04-11T17:58:44.805Z,69.80
2019-04-11T18:01:13.370Z,70.20
2019-04-11T18:03:42.607Z,70.70
2019-04-11T18:06:11.099Z,70.00
2019-04-11T18:08:39.495Z,71.00
2019-04-11T18:11:08.038Z,71.70
2019-04-11T18:13:36.434Z,72.80
2019-04-11T18:16:05.050Z,71.80
2019-04-11T18:18:35.168Z,73.30
2019-04-11T18:21:07.104Z,73.10
2019-04-11T18:23:35.919Z,72.60
2019-04-11T18:28:32.814Z,72.00
2019-04-11T18:31:01.212Z,72.10
2019-04-11T18:33:31.710Z,72.20
2019-04-11T18:36:02.265Z,72.80
2019-04-11T18:38:32.159Z,74.20
2019-04-11T18:41:01.066Z,73.40
2019-04-11T18:43:29.533Z,73.50
2019-04-11T18:45:58.003Z,73.10
2019-04-11T18:48:26.404Z,74.00
2019-04-11T18:50:54.804Z,74.20
2019-04-11T18:53:23.211Z,73.90
2019-04-11T18:55:51.615Z,74.20
2019-04-11T18:58:20.007Z,74.30
2019-04-11T19:00:48.490Z,74.10
2019-04-11T19:03:17.054Z,75.00
2019-04-11T19:05:45.519Z,75.00
2019-04-11T19:08:14.088Z,75.10
2019-04-11T19:10:42.876Z,75.30
2019-04-11T19:13:16.668Z,75.40
2019-04-11T19:15:45.519Z,75.30
2019-04-11T19:18:15.921Z,75.80
2019-04-11T19:20:43.363Z,75.70
2019-04-11T19:23:11.762Z,76.30
2019-04-11T19:25:44.515Z,76.50
2019-04-11T19:28:10.287Z,77.20
2019-04-11T19:30:38.710Z,77.30
2019-04-11T19:33:07.111Z,77.80
2019-04-11T19:35:35.508Z,77.10
2019-04-11T19:38:04.311Z,77.90
2019-04-11T19:40:32.930Z,77.60
2019-04-11T19:43:01.323Z,77.40
2019-04-11T19:45:30.063Z,77.20
2019-04-11T19:47:58.457Z,77.60
2019-04-11T19:50:29.099Z,78.20
2019-04-11T19:52:56.990Z,78.00
2019-04-11T19:55:29.450Z,78.30
2019-04-11T19:57:57.847Z,79.10
2019-04-11T20:00:26.295Z,79.00
2019-04-11T20:02:54.797Z,79.60
2019-04-11T20:05:24.570Z,80.00
2019-04-11T20:07:52.980Z,80.20
2019-04-11T20:10:21.378Z,80.50
2019-04-11T20:12:49.779Z,81.40
2019-04-11T20:15:18.184Z,81.70
2019-04-11T20:17:51.161Z,82.00
2019-04-11T20:20:16.707Z,82.20
2019-04-11T20:22:45.116Z,82.50
2019-04-11T20:25:15.951Z,82.40
2019-04-11T20:27:43.661Z,82.80
2019-04-11T20:30:12.446Z,83.00
2019-04-11T20:35:10.162Z,83.70
2019-04-11T20:37:39.836Z,84.20
2019-04-11T20:40:08.965Z,85.00
2019-04-11T20:42:37.367Z,85.00
2019-04-11T20:47:34.570Z,85.40
2019-04-11T20:50:07.325Z,86.70
2019-04-11T20:52:33.417Z,86.60
2019-04-11T20:55:01.856Z,86.60
2019-04-11T20:57:30.290Z,87.40
2019-04-11T20:59:58.942Z,86.70
2019-04-11T21:02:29.047Z,87.80
2019-04-11T21:04:58.905Z,87.70
2019-04-11T21:07:31.604Z,88.20
2019-04-11T21:09:57.732Z,88.20
2019-04-11T21:12:26.125Z,88.40
2019-04-11T21:14:54.537Z,88.40
2019-04-11T21:17:22.931Z,88.40
2019-04-11T21:19:53.342Z,89.20
2019-04-11T21:22:24.029Z,88.90
2019-04-11T21:24:51.625Z,89.50
2019-04-11T21:27:20.023Z,89.60
2019-04-11T21:29:48.507Z,89.90
2019-04-11T21:32:16.908Z,90.20
2019-04-11T21:34:45.306Z,90.40
2019-04-11T21:37:13.708Z,90.40
2019-04-11T21:39:42.102Z,90.70
2019-04-11T21:42:10.510Z,91.10
2019-04-11T21:44:38.906Z,91.50
2019-04-11T21:47:07.968Z,91.30
2019-04-11T21:49:37.025Z,91.80
2019-04-11T21:52:06.172Z,92.10
2019-04-11T21:54:34.562Z,92.10
2019-04-11T21:57:02.962Z,92.70
2019-04-11T21:59:31.364Z,92.60
2019-04-11T22:01:59.838Z,92.80
2019-04-11T22:04:31.013Z,93.00
2019-04-11T22:07:00.724Z,93.60
2019-04-11T22:09:28.474Z,94.00
2019-04-11T22:11:56.870Z,94.10
2019-04-11T22:14:25.290Z,94.60
2019-04-11T22:16:55.020Z,95.10
2019-04-11T22:19:23.836Z,95.60
2019-04-11T22:21:52.283Z,96.00
2019-04-11T22:24:20.722Z,96.20
2019-04-11T22:26:50.603Z,96.30
2019-04-11T22:29:19.256Z,96.50
2019-04-11T22:31:47.646Z,96.30
2019-04-11T22:34:17.759Z,96.40
2019-04-11T22:36:46.225Z,96.50
2019-04-11T22:39:14.618Z,96.60
2019-04-11T22:41:43.015Z,96.90
2019-04-11T22:44:11.426Z,97.00
2019-04-11T22:46:39.826Z,97.10
2019-04-11T22:49:08.849Z,97.30
2019-04-11T22:51:42.708Z,97.80
2019-04-11T22:54:08.035Z,97.70
2019-04-11T22:56:36.435Z,97.90
2019-04-11T22:59:04.851Z,97.80
2019-04-11T23:01:33.246Z,97.80
2019-04-11T23:04:02.328Z,97.90
2019-04-11T23:06:30.734Z,98.30
2019-04-11T23:08:59.137Z,98.10
2019-04-11T23:11:27.518Z,98.00
2019-04-11T23:13:55.925Z,97.80
2019-04-11T23:16:24.406Z,98.00
2019-04-11T23:18:52.807Z,98.30
2019-04-11T23:21:21.209Z,98.90
2019-04-11T23:23:49.614Z,99.20
2019-04-11T23:26:18.014Z,99.70
2019-04-11T23:28:46.940Z,99.90
2019-04-11T23:31:19.947Z,99.90
2019-04-11T23:33:46.303Z,99.90
2019-04-11T23:36:14.699Z,99.90
2019-04-11T23:38:43.102Z,99.90
2019-04-11T23:41:11.518Z,99.90
2019-04-11T23:43:39.898Z,99.90
2019-04-11T23:46:08.306Z,99.90
2019-04-11T23:48:36.690Z,99.90
2019-04-11T23:51:05.097Z,99.90
2019-04-11T23:53:33.490Z,99.90
2019-04-11T23:56:02.058Z,99.90
2019-04-11T23:58:32.121Z,99.90
